Capitol Logistics 7359

Operating for MZN



KTOL
Eugene F Kranz Toledo Express Airport
Toledo, Ohio
KTPA
Tampa International Airport
Tampa, Florida

Activity Log

Date Flight Route Aircraft Duration
05/04/2021 CPX7359 JECKA J43 ROD Q65 LORNN ATL HONID Q81 BULZI HEVVN FOOXX5 B752 2h 08m

Route Details

Aircraft Information
Primary: Boeing 737-800BCF
Backup: Boeing 757-200SF
Route Data
Distance: 822nm
Duration: 2h 10m
Recm'd Route: JECKA J43 ROD Q65 LORNN ATL HONID Q81 BULZI HEVVN FOOXX5
Origin Wx: KTOL 020452Z 01006KT 10SM CLR 16/12 A3008 RMK AO2 SLP183 T01610117 402610161
Dest. Wx: KTPA 020453Z 24006KT 10SM FEW021 29/25 A3005 RMK AO2 SLP174 T02940250 403390283
Notes: